createdAt,value
2022-07-26T00:03:47.596Z,98.40
2022-07-26T00:07:49.437Z,97.70
2022-07-26T00:11:50.782Z,97.90
2022-07-26T00:15:52.277Z,97.30
2022-07-26T00:19:53.535Z,97.90
2022-07-26T00:23:54.850Z,96.50
2022-07-26T00:27:56.076Z,96.30
2022-07-26T00:31:57.455Z,95.40
2022-07-26T00:35:58.697Z,97.10
2022-07-26T00:39:59.892Z,97.60
2022-07-26T00:44:01.145Z,99.20
2022-07-26T00:48:02.680Z,99.60
2022-07-26T00:52:08.339Z,99.90
2022-07-26T00:56:09.574Z,99.90
2022-07-26T01:00:14.564Z,99.90
2022-07-26T01:04:15.978Z,99.90
2022-07-26T01:08:17.618Z,99.90
2022-07-26T01:12:18.823Z,99.90
2022-07-26T01:16:20.221Z,99.90
2022-07-26T01:20:21.490Z,99.90
2022-07-26T01:24:22.616Z,99.90
2022-07-26T01:28:23.812Z,99.90
2022-07-26T01:32:24.945Z,99.90
2022-07-26T01:36:26.081Z,99.90
2022-07-26T01:40:27.198Z,99.90
2022-07-26T01:44:28.335Z,99.90
2022-07-26T01:48:30.341Z,99.90
2022-07-26T01:52:32.615Z,99.90
2022-07-26T01:56:33.854Z,99.90
2022-07-26T02:00:35.384Z,99.90
2022-07-26T02:04:55.092Z,99.90
2022-07-26T02:08:57.549Z,99.90
2022-07-26T02:12:59.056Z,99.90
2022-07-26T02:17:01.370Z,99.90
2022-07-26T02:21:03.796Z,99.90
2022-07-26T02:25:05.913Z,99.90
2022-07-26T02:29:07.436Z,99.90
2022-07-26T02:33:08.653Z,99.90
2022-07-26T02:37:09.878Z,99.90
2022-07-26T02:41:11.014Z,99.90
2022-07-26T02:45:12.425Z,99.90
2022-07-26T02:49:13.899Z,99.90
2022-07-26T02:53:15.188Z,99.90
2022-07-26T02:57:16.420Z,99.90
2022-07-26T03:01:17.748Z,99.90
2022-07-26T03:05:20.581Z,99.90
2022-07-26T03:09:21.986Z,99.90
2022-07-26T03:13:23.251Z,99.90
2022-07-26T03:17:24.687Z,99.90
2022-07-26T03:21:25.849Z,99.90
2022-07-26T03:25:27.179Z,99.90
2022-07-26T03:29:28.513Z,99.90
2022-07-26T03:33:30.020Z,99.90
2022-07-26T03:37:46.353Z,99.90
2022-07-26T03:41:34.396Z,99.90
2022-07-26T03:45:35.729Z,99.90
2022-07-26T03:49:36.934Z,99.90
2022-07-26T03:53:38.185Z,99.90
2022-07-26T03:57:39.913Z,99.90
2022-07-26T04:01:42.068Z,99.90
2022-07-26T04:05:49.069Z,99.90
2022-07-26T04:09:46.327Z,99.90
2022-07-26T04:13:47.546Z,99.90
2022-07-26T04:17:48.957Z,99.90
2022-07-26T04:21:50.567Z,99.90
2022-07-26T04:25:51.679Z,99.90
2022-07-26T04:29:52.977Z,99.90
2022-07-26T04:33:54.206Z,99.90
2022-07-26T04:37:55.617Z,99.90
2022-07-26T04:41:56.740Z,99.90
2022-07-26T04:45:58.259Z,99.90
2022-07-26T04:49:59.520Z,99.90
2022-07-26T04:54:00.728Z,99.90
2022-07-26T04:58:01.939Z,99.90
2022-07-26T05:02:03.412Z,99.90
2022-07-26T05:06:04.986Z,99.90
2022-07-26T05:10:07.097Z,99.90
2022-07-26T05:14:08.671Z,99.90
2022-07-26T05:18:10.706Z,99.90
2022-07-26T05:22:13.219Z,99.90
2022-07-26T05:26:14.456Z,99.90
2022-07-26T05:30:15.677Z,99.90
2022-07-26T05:34:16.931Z,99.90
2022-07-26T05:38:18.164Z,99.90
2022-07-26T05:42:19.402Z,99.90
2022-07-26T05:46:20.663Z,99.90
2022-07-26T05:50:21.945Z,99.90
2022-07-26T05:54:23.173Z,99.90
2022-07-26T05:58:24.404Z,99.90
2022-07-26T06:02:25.831Z,99.90
2022-07-26T06:06:27.153Z,99.90
2022-07-26T06:10:28.374Z,99.90
2022-07-26T06:14:29.801Z,99.60
2022-07-26T06:18:30.923Z,98.50
2022-07-26T06:22:32.160Z,99.20
2022-07-26T06:26:33.774Z,98.80
2022-07-26T06:30:36.443Z,99.90
2022-07-26T06:34:37.676Z,99.90
2022-07-26T06:38:39.398Z,99.00
2022-07-26T06:42:40.623Z,99.90
2022-07-26T06:46:41.746Z,99.90
2022-07-26T06:50:43.192Z,99.90
2022-07-26T06:54:44.602Z,99.90
2022-07-26T06:58:46.338Z,99.90
2022-07-26T07:02:48.168Z,99.90
2022-07-26T07:06:49.596Z,99.90
2022-07-26T07:10:52.649Z,99.90
2022-07-26T07:14:55.348Z,99.90
2022-07-26T07:18:56.668Z,99.90
2022-07-26T07:22:57.912Z,99.90
2022-07-26T07:27:00.645Z,99.90
2022-07-26T07:31:01.905Z,99.90
2022-07-26T07:35:12.754Z,99.90
2022-07-26T07:39:15.689Z,99.90
2022-07-26T07:43:12.596Z,99.90
2022-07-26T07:47:14.058Z,98.40
2022-07-26T07:51:15.332Z,97.60
2022-07-26T07:55:36.552Z,96.60
2022-07-26T07:59:22.793Z,95.10
2022-07-26T08:03:23.968Z,96.60
2022-07-26T08:07:32.954Z,97.20
2022-07-26T08:11:31.083Z,94.80
2022-07-26T08:15:34.227Z,96.90
2022-07-26T08:19:42.357Z,97.00
2022-07-26T08:23:40.261Z,95.30
2022-07-26T08:27:41.487Z,95.30
2022-07-26T08:31:42.720Z,95.30
2022-07-26T08:35:44.245Z,94.20
2022-07-26T08:39:46.880Z,92.30
2022-07-26T08:43:53.185Z,92.10
2022-07-26T08:48:16.112Z,91.60
2022-07-26T08:51:56.257Z,87.60
2022-07-26T08:56:07.064Z,86.70
2022-07-26T09:00:24.668Z,85.30
2022-07-26T09:04:32.967Z,87.50
2022-07-26T09:08:34.881Z,87.00
2022-07-26T09:12:36.890Z,83.60
2022-07-26T09:16:40.092Z,82.10
2022-07-26T09:20:45.274Z,83.60
2022-07-26T09:24:47.606Z,83.10
2022-07-26T09:29:07.751Z,78.10
2022-07-26T09:33:09.217Z,78.20
2022-07-26T09:37:12.495Z,80.80
2022-07-26T09:41:23.612Z,80.50
2022-07-26T09:45:27.983Z,78.40
2022-07-26T09:49:40.188Z,81.90
2022-07-26T09:53:45.623Z,77.70
2022-07-26T09:57:47.498Z,76.20
2022-07-26T10:01:50.615Z,75.60
2022-07-26T10:05:52.472Z,77.70
2022-07-26T10:10:00.199Z,77.00
2022-07-26T10:14:21.888Z,74.50
2022-07-26T10:18:43.134Z,69.20
2022-07-26T10:22:46.999Z,68.30
2022-07-26T10:26:48.156Z,66.60
2022-07-26T10:30:49.719Z,68.70
2022-07-26T10:34:50.925Z,70.50
2022-07-26T10:39:01.292Z,65.00
2022-07-26T10:43:37.717Z,65.60
2022-07-26T10:47:15.093Z,69.20
2022-07-26T10:51:28.803Z,64.20
2022-07-26T10:55:30.285Z,60.90
2022-07-26T10:59:54.738Z,64.10
2022-07-26T11:03:41.216Z,62.60
2022-07-26T11:08:08.255Z,63.80
2022-07-26T11:12:19.807Z,64.60
2022-07-26T11:16:22.746Z,63.80
2022-07-26T11:20:29.263Z,63.50
2022-07-26T11:24:28.611Z,63.50
2022-07-26T11:28:49.626Z,63.80
2022-07-26T11:32:55.557Z,65.90
2022-07-26T11:36:58.863Z,64.80
2022-07-26T11:41:00.178Z,63.40
2022-07-26T11:45:01.715Z,62.90
2022-07-26T11:49:05.566Z,60.50
2022-07-26T11:53:10.731Z,58.10
2022-07-26T11:57:12.175Z,57.20
2022-07-26T12:01:15.993Z,58.50
2022-07-26T12:05:20.901Z,56.70
2022-07-26T12:09:31.428Z,57.30
2022-07-26T12:13:39.922Z,55.60
2022-07-26T12:17:37.684Z,54.90
2022-07-26T12:21:41.810Z,52.40
2022-07-26T12:25:44.889Z,54.20
2022-07-26T12:29:48.520Z,53.40
2022-07-26T12:33:49.972Z,55.70
2022-07-26T12:37:52.991Z,55.70
2022-07-26T12:41:55.209Z,58.00
2022-07-26T12:45:56.389Z,58.60
2022-07-26T12:49:57.915Z,58.20
2022-07-26T12:53:59.437Z,59.30
2022-07-26T12:58:00.988Z,58.90
2022-07-26T13:02:03.376Z,57.60
2022-07-26T13:06:04.897Z,58.00
2022-07-26T13:10:31.580Z,58.40
2022-07-26T13:14:12.289Z,56.70
2022-07-26T13:18:14.922Z,58.20
2022-07-26T13:22:16.133Z,56.90
2022-07-26T13:26:17.400Z,55.10
2022-07-26T13:30:19.398Z,52.10
2022-07-26T13:34:22.606Z,54.10
2022-07-26T13:38:23.819Z,54.60
2022-07-26T13:42:25.060Z,55.10
2022-07-26T13:46:33.157Z,56.20
2022-07-26T13:50:31.872Z,57.00
2022-07-26T13:54:34.684Z,57.90
2022-07-26T13:58:36.242Z,57.20
2022-07-26T14:02:37.605Z,57.20
2022-07-26T14:06:39.487Z,55.00
2022-07-26T14:10:40.905Z,53.60
2022-07-26T14:14:42.310Z,52.60
2022-07-26T14:18:43.542Z,51.80
2022-07-26T14:22:44.701Z,52.70
2022-07-26T14:26:45.892Z,54.00
2022-07-26T14:30:49.043Z,54.60
2022-07-26T14:34:50.562Z,53.90
2022-07-26T14:38:52.259Z,54.00
2022-07-26T14:42:53.570Z,54.30
2022-07-26T14:46:54.822Z,54.40
2022-07-26T14:51:09.029Z,55.50
2022-07-26T14:54:59.213Z,54.50
2022-07-26T14:59:00.546Z,53.80
2022-07-26T15:03:01.688Z,51.70
2022-07-26T15:07:02.920Z,50.90
2022-07-26T15:11:05.396Z,51.70
2022-07-26T15:15:08.056Z,52.20
2022-07-26T15:19:09.274Z,52.10
2022-07-26T15:23:11.769Z,52.00
2022-07-26T15:27:13.226Z,51.20
2022-07-26T15:31:14.402Z,51.60
2022-07-26T15:35:15.888Z,50.40
2022-07-26T15:39:18.049Z,51.00
2022-07-26T15:43:21.768Z,51.00
2022-07-26T15:47:52.841Z,49.60
2022-07-26T15:51:27.951Z,51.70
2022-07-26T15:55:29.279Z,51.40
2022-07-26T15:59:30.454Z,50.80
2022-07-26T16:03:31.785Z,50.20
2022-07-26T16:07:33.093Z,51.30
2022-07-26T16:11:34.326Z,51.30
2022-07-26T16:15:35.554Z,52.80
2022-07-26T16:19:36.869Z,53.00
2022-07-26T16:23:38.069Z,52.00
2022-07-26T16:27:43.726Z,52.10
2022-07-26T16:31:45.022Z,52.80
2022-07-26T16:35:46.278Z,51.60
2022-07-26T16:39:47.530Z,51.00
2022-07-26T16:43:48.759Z,51.70
2022-07-26T16:47:50.003Z,52.80
2022-07-26T16:51:51.258Z,53.60
2022-07-26T16:55:52.688Z,53.00
2022-07-26T16:59:53.848Z,52.90
2022-07-26T17:03:55.076Z,53.60
2022-07-26T17:07:56.418Z,53.60
2022-07-26T17:12:04.282Z,53.40
2022-07-26T17:16:02.912Z,54.10
2022-07-26T17:20:05.974Z,54.00
2022-07-26T17:24:07.469Z,54.30
2022-07-26T17:28:09.481Z,54.30
2022-07-26T17:32:10.928Z,54.80
2022-07-26T17:36:27.543Z,54.70
2022-07-26T17:40:28.792Z,54.80
2022-07-26T17:44:31.035Z,54.80
2022-07-26T17:48:32.440Z,55.10
2022-07-26T17:52:34.023Z,55.00
2022-07-26T17:56:35.251Z,55.50
2022-07-26T18:00:36.707Z,55.90
2022-07-26T18:04:37.949Z,56.40
2022-07-26T18:08:39.174Z,59.80
2022-07-26T18:12:40.405Z,61.50
2022-07-26T18:16:43.600Z,62.50
2022-07-26T18:20:45.226Z,63.50
2022-07-26T18:24:46.446Z,64.70
2022-07-26T18:28:49.840Z,65.30
2022-07-26T18:32:51.601Z,66.00
2022-07-26T18:36:53.359Z,67.40
2022-07-26T18:40:54.562Z,68.10
2022-07-26T18:44:55.687Z,68.60
2022-07-26T18:48:57.185Z,68.90
2022-07-26T18:52:59.941Z,68.80
2022-07-26T18:57:01.087Z,69.30
2022-07-26T19:01:02.291Z,70.10
2022-07-26T19:05:04.834Z,69.60
2022-07-26T19:09:06.268Z,69.30
2022-07-26T19:13:07.397Z,70.30
2022-07-26T19:17:10.511Z,71.30
2022-07-26T19:21:11.741Z,72.30
2022-07-26T19:25:15.579Z,72.30
2022-07-26T19:29:17.746Z,73.70
2022-07-26T19:33:18.964Z,74.00
2022-07-26T19:37:20.802Z,73.70
2022-07-26T19:41:22.226Z,73.40
2022-07-26T19:45:23.889Z,73.20
2022-07-26T19:49:25.230Z,73.80
2022-07-26T19:53:26.580Z,73.30
2022-07-26T19:57:27.903Z,73.40
2022-07-26T20:01:29.502Z,74.10
2022-07-26T20:05:30.871Z,74.60
2022-07-26T20:09:33.393Z,73.70
2022-07-26T20:13:34.602Z,73.50
2022-07-26T20:17:38.549Z,72.60
2022-07-26T20:21:39.768Z,72.10
2022-07-26T20:25:41.017Z,71.80
2022-07-26T20:29:42.266Z,71.30
2022-07-26T20:33:43.509Z,71.70
2022-07-26T20:37:44.831Z,72.00
2022-07-26T20:41:46.078Z,74.10
2022-07-26T20:45:47.304Z,74.10
2022-07-26T20:49:48.633Z,74.00
2022-07-26T20:53:49.850Z,74.80
2022-07-26T20:57:51.207Z,75.20
2022-07-26T21:01:52.408Z,75.80
2022-07-26T21:05:53.643Z,77.80
2022-07-26T21:09:54.886Z,79.20
2022-07-26T21:13:56.425Z,80.90
2022-07-26T21:17:57.939Z,83.00
2022-07-26T21:21:59.764Z,86.10
2022-07-26T21:26:01.121Z,88.30
2022-07-26T21:30:03.290Z,89.60
2022-07-26T21:34:04.789Z,90.30
2022-07-26T21:38:06.988Z,91.00
2022-07-26T21:42:08.216Z,90.60
2022-07-26T21:46:12.611Z,92.10
2022-07-26T21:50:12.599Z,94.80
2022-07-26T21:54:13.827Z,97.10
2022-07-26T21:58:16.641Z,98.90
2022-07-26T22:02:20.179Z,99.90
2022-07-26T22:06:21.934Z,99.90
2022-07-26T22:10:23.300Z,99.90
2022-07-26T22:14:24.503Z,99.90
2022-07-26T22:18:26.443Z,99.90
2022-07-26T22:22:27.677Z,99.90
2022-07-26T22:26:30.515Z,99.90
2022-07-26T22:30:32.237Z,99.90
2022-07-26T22:34:33.392Z,99.90
2022-07-26T22:38:34.628Z,99.90
2022-07-26T22:42:35.882Z,99.90
2022-07-26T22:46:37.138Z,99.90
2022-07-26T22:50:38.545Z,99.90
2022-07-26T22:54:39.674Z,99.90
2022-07-26T22:58:40.900Z,99.90
2022-07-26T23:02:42.628Z,99.90
2022-07-26T23:06:44.627Z,99.90
2022-07-26T23:10:45.874Z,99.90
2022-07-26T23:14:47.140Z,99.90
2022-07-26T23:18:48.397Z,99.90
2022-07-26T23:22:49.595Z,99.90
2022-07-26T23:26:50.739Z,99.90
2022-07-26T23:30:51.968Z,99.90
2022-07-26T23:34:53.212Z,99.90
2022-07-26T23:38:56.126Z,99.90
2022-07-26T23:42:57.322Z,99.90
2022-07-26T23:46:58.938Z,99.90
2022-07-26T23:51:00.287Z,99.90
2022-07-26T23:55:02.413Z,99.90
2022-07-26T23:59:03.940Z,99.90
